Time;durP1;ratioP1;P1;durP2;ratioP2;P2;SDS_P1;SDS_P2;PMS_P1;PMS_P2;Temp;Humidity;BMP_temperature;BMP_pressure;BME280_temperature;BME280_humidity;BME280_pressure;Samples;Min_cycle;Max_cycle;Signal;HPM_P1;HPM_P2
2022/10/30 08:23:12;;;;;;;4.45;2.10;;;;;;;21.03;39.78;101677.81;5044851;27;20398;-78
2022/10/30 08:25:37;;;;;;;4.03;2.10;;;;;;;21.32;39.15;101670.13;5042506;28;20430;-76
2022/10/30 08:28:05;;;;;;;3.03;1.92;;;;;;;21.41;38.48;101671.56;5059909;28;20391;-77
2022/10/30 08:30:33;;;;;;;5.75;2.15;;;;;;;21.47;37.74;101670.69;5032287;28;20424;-79
2022/10/30 08:33:05;;;;;;;4.63;2.50;;;;;;;21.50;37.71;101658.63;4999715;28;20443;-79
2022/10/30 08:35:31;;;;;;;6.18;2.40;;;;;;;21.57;37.79;101657.53;5044274;28;20455;-78
2022/10/30 08:37:58;;;;;;;6.18;2.20;;;;;;;21.63;37.44;101663.13;5045455;28;20507;-82
2022/10/30 08:40:25;;;;;;;4.35;2.20;;;;;;;21.81;37.65;101663.16;5040810;28;20412;-80
2022/10/30 08:42:54;;;;;;;3.90;2.10;;;;;;;21.86;37.85;101660.63;5040153;28;20437;-79
2022/10/30 08:45:20;;;;;;;5.60;2.15;;;;;;;21.79;37.61;101661.69;5040427;28;20383;-81
2022/10/30 08:47:47;;;;;;;4.32;2.00;;;;;;;21.80;37.50;101666.88;5041732;28;20390;-80
2022/10/30 08:50:15;;;;;;;3.35;2.10;;;;;;;21.83;37.68;101662.94;5048637;28;20393;-80
2022/10/30 08:52:40;;;;;;;2.42;1.95;;;;;;;21.88;37.47;101652.31;5024973;28;20434;-79
2022/10/30 08:55:07;;;;;;;4.63;2.30;;;;;;;21.89;37.67;101654.75;5055886;28;20387;-79
2022/10/30 08:57:36;;;;;;;4.97;2.38;;;;;;;21.86;37.20;101659.75;5035996;28;20530;-77
2022/10/30 09:00:06;;;;;;;4.47;2.20;;;;;;;21.91;36.73;101655.38;5053142;28;20415;-80
2022/10/30 09:02:35;;;;;;;6.97;3.10;;;;;;;21.96;36.60;101655.50;5037451;28;20431;-80
2022/10/30 09:05:00;;;;;;;6.07;3.63;;;;;;;21.95;36.86;101653.06;5055979;28;20409;-78
2022/10/30 09:07:26;;;;;;;3.70;2.60;;;;;;;22.04;36.73;101662.50;5039304;28;20383;-79
2022/10/30 09:09:52;;;;;;;3.88;1.90;;;;;;;22.03;36.37;101662.75;5039476;28;20386;-79
2022/10/30 09:12:18;;;;;;;3.53;1.75;;;;;;;22.14;36.50;101656.59;5039148;28;20381;-79
2022/10/30 09:14:43;;;;;;;5.70;2.17;;;;;;;22.19;36.41;101651.34;5037375;28;20384;-78
2022/10/30 09:17:10;;;;;;;4.30;2.20;;;;;;;22.25;36.53;101657.72;5053434;28;20379;-80
2022/10/30 09:19:36;;;;;;;3.85;2.25;;;;;;;22.27;36.73;101661.03;5038004;28;20384;-78
2022/10/30 09:22:02;;;;;;;3.70;1.90;;;;;;;22.24;36.08;101653.38;5037346;28;20422;-78
2022/10/30 09:24:29;;;;;;;6.15;2.30;;;;;;;22.38;35.94;101651.38;5027620;28;20428;-79
2022/10/30 09:26:55;;;;;;;3.97;2.15;;;;;;;22.48;35.67;101654.38;5015029;28;20382;-79
2022/10/30 09:29:20;;;;;;;3.73;1.90;;;;;;;22.48;35.74;101648.97;5015372;28;20884;-80
2022/10/30 09:31:46;;;;;;;5.45;2.35;;;;;;;22.51;35.98;101643.94;5015370;28;20457;-79
2022/10/30 09:34:14;;;;;;;4.83;2.23;;;;;;;22.63;35.84;101640.47;5004059;28;20762;-79
2022/10/30 09:36:42;;;;;;;4.60;2.40;;;;;;;22.70;36.17;101633.91;4988738;28;20808;-79
2022/10/30 09:39:09;;;;;;;5.35;2.40;;;;;;;22.70;36.13;101636.59;5009307;28;20413;-79
2022/10/30 09:42:04;;;;;;;2.93;2.20;;;;;;;22.71;36.11;101629.34;5004820;28;20413;-79
2022/10/30 09:44:48;;;;;;;4.60;2.30;;;;;;;22.85;35.93;101628.09;4965726;28;20405;-78
2022/10/30 09:47:13;;;;;;;3.67;2.03;;;;;;;22.87;35.50;101628.69;5006975;28;20420;-80
2022/10/30 09:49:45;;;;;;;6.50;2.50;;;;;;;22.96;35.87;101620.25;5007065;28;20393;-81
2022/10/30 09:52:29;;;;;;;4.60;2.10;;;;;;;23.00;35.32;101621.44;5006458;28;20393;-80
2022/10/30 09:55:20;;;;;;;4.87;1.90;;;;;;;23.12;34.99;101610.69;5005311;28;20466;-79
2022/10/30 09:57:52;;;;;;;4.63;2.53;;;;;;;23.12;35.36;101603.41;4994826;28;20389;-78
2022/10/30 10:00:21;;;;;;;3.00;2.00;;;;;;;23.26;35.09;101607.56;5002171;28;20421;-79
2022/10/30 10:03:05;;;;;;;4.18;2.00;;;;;;;23.37;34.99;101600.50;5006570;28;20473;-78
2022/10/30 10:05:45;;;;;;;4.50;2.60;;;;;;;23.54;35.20;101595.22;5020744;28;20390;-80
2022/10/30 10:08:22;;;;;;;5.18;2.90;;;;;;;23.62;34.34;101594.88;5003758;28;20386;-78
2022/10/30 10:10:52;;;;;;;6.07;2.75;;;;;;;23.74;33.69;101583.22;5003652;28;20394;-78
2022/10/30 10:13:57;;;;;;;4.90;1.92;;;;;;;23.71;32.92;101584.50;5006741;28;20381;-79
2022/10/30 10:16:28;;;;;;;6.10;1.73;;;;;;;23.55;33.05;101571.66;5005799;28;20421;-79
2022/10/30 10:19:19;;;;;;;3.17;1.58;;;;;;;23.70;32.84;101576.59;5003514;28;20385;-81
2022/10/30 10:22:02;;;;;;;3.88;1.67;;;;;;;23.85;32.70;101576.97;5005974;28;20414;-80
2022/10/30 10:24:41;;;;;;;3.50;1.57;;;;;;;23.93;32.65;101576.63;5022864;28;20394;-79
2022/10/30 10:27:09;;;;;;;6.30;2.00;;;;;;;24.14;32.44;101575.13;5020121;28;20405;-79
2022/10/30 10:29:55;;;;;;;6.53;2.20;;;;;;;24.18;32.20;101578.19;5005480;28;20389;-79
2022/10/30 10:32:27;;;;;;;4.88;2.20;;;;;;;24.24;31.12;101577.25;5005052;28;20758;-80
2022/10/30 10:35:30;;;;;;;2.85;1.52;;;;;;;24.25;30.79;101568.03;5002557;28;20384;-79
2022/10/30 10:38:07;;;;;;;2.97;1.90;;;;;;;24.46;30.74;101560.31;5004307;28;20362;-79
2022/10/30 10:41:02;;;;;;;6.57;2.95;;;;;;;24.58;30.39;101553.81;4997083;28;20391;-81
2022/10/30 10:43:39;;;;;;;5.13;2.55;;;;;;;24.59;29.90;101544.59;5000200;28;20493;-79
2022/10/30 10:46:31;;;;;;;4.88;2.90;;;;;;;24.72;30.09;101550.78;5004114;28;20382;-79
2022/10/30 10:49:06;;;;;;;10.80;5.63;;;;;;;24.41;29.74;101558.34;4998224;28;20492;-79
2022/10/30 10:52:03;;;;;;;6.68;4.75;;;;;;;24.57;29.97;101541.31;5006261;28;20389;-81
2022/10/30 10:54:37;;;;;;;5.07;2.97;;;;;;;24.81;29.80;101543.88;4992864;28;20382;-81
2022/10/30 10:57:06;;;;;;;9.02;5.88;;;;;;;24.96;29.99;101537.91;5002312;28;20489;-78
2022/10/30 10:59:41;;;;;;;5.88;2.67;;;;;;;25.03;29.83;101535.03;5003442;28;20953;-80
2022/10/30 11:02:21;;;;;;;3.58;2.00;;;;;;;25.02;29.75;101526.06;5002557;28;20498;-78
2022/10/30 11:04:52;;;;;;;5.00;2.20;;;;;;;25.07;29.47;101531.59;5003081;28;20393;-81
2022/10/30 11:07:25;;;;;;;3.17;1.77;;;;;;;25.02;28.78;101530.69;5002493;28;20382;-80
2022/10/30 11:09:55;;;;;;;3.35;1.20;;;;;;;24.87;28.19;101526.66;5018909;28;20385;-79
2022/10/30 11:12:41;;;;;;;4.78;1.70;;;;;;;24.97;28.08;101524.13;5004071;28;20377;-80
2022/10/30 11:15:40;;;;;;;4.00;1.30;;;;;;;24.92;27.90;101521.31;5004328;28;20396;-79
2022/10/30 11:18:09;;;;;;;2.72;1.42;;;;;;;24.86;28.52;101524.19;4991756;28;20731;-79
2022/10/30 11:21:16;;;;;;;5.03;1.47;;;;;;;24.96;27.99;101527.06;5018139;28;20397;-78
2022/10/30 11:23:48;;;;;;;4.18;1.40;;;;;;;24.87;28.06;101518.53;4961696;29;20660;-77
2022/10/30 11:26:16;;;;;;;3.08;1.10;;;;;;;24.85;27.42;101511.69;5010759;28;20396;-80
2022/10/30 11:28:51;;;;;;;2.75;1.10;;;;;;;24.74;26.62;101506.09;5004178;28;20417;-78
2022/10/30 11:31:18;;;;;;;2.50;1.15;;;;;;;24.85;26.48;101500.84;5005708;28;20444;-79
2022/10/30 11:33:44;;;;;;;3.23;1.03;;;;;;;24.92;26.29;101499.63;5013740;28;20380;-79
2022/10/30 11:36:10;;;;;;;5.30;1.90;;;;;;;25.10;27.28;101497.69;4995765;28;20378;-77
2022/10/30 11:38:35;;;;;;;4.80;1.80;;;;;;;25.23;27.49;101493.81;5003640;28;20440;-78
2022/10/30 11:41:17;;;;;;;3.17;1.48;;;;;;;25.26;27.97;101483.31;5020668;28;20382;-79
2022/10/30 11:43:44;;;;;;;3.03;1.10;;;;;;;25.32;26.61;101482.34;5002079;28;20394;-80
2022/10/30 11:46:19;;;;;;;4.10;1.50;;;;;;;25.40;27.33;101475.66;5015541;28;20735;-79
2022/10/30 11:48:48;;;;;;;5.85;1.70;;;;;;;25.73;27.10;101479.31;5004437;28;20386;-79
2022/10/30 11:51:37;;;;;;;3.45;1.50;;;;;;;25.81;27.25;101472.63;5004734;28;20421;-79
2022/10/30 11:54:03;;;;;;;3.17;1.40;;;;;;;25.79;26.79;101474.78;5003314;28;20417;-80
2022/10/30 11:56:30;;;;;;;2.43;1.70;;;;;;;25.76;27.21;101470.66;5001915;28;20448;-80
2022/10/30 11:58:58;;;;;;;5.00;1.90;;;;;;;25.68;27.17;101471.13;5001384;28;20393;-79
2022/10/30 12:01:37;;;;;;;3.35;2.20;;;;;;;25.76;27.47;101466.06;5017118;28;20402;-81
2022/10/30 12:04:23;;;;;;;3.75;1.73;;;;;;;25.73;27.37;101458.44;5002403;28;20385;-81
2022/10/30 12:07:10;;;;;;;2.73;2.03;;;;;;;25.81;27.49;101454.44;5005142;28;20393;-80
2022/10/30 12:09:44;;;;;;;2.75;1.50;;;;;;;25.79;27.24;101447.63;5001856;28;20409;-80
2022/10/30 12:12:31;;;;;;;4.83;1.40;;;;;;;25.81;27.23;101453.63;5016572;28;20440;-78
2022/10/30 12:15:34;;;;;;;2.53;1.40;;;;;;;25.89;26.69;101437.69;5016993;28;20851;-79
2022/10/30 12:18:03;;;;;;;8.38;1.27;;;;;;;25.91;26.06;101442.84;4999361;28;20468;-77
2022/10/30 12:20:28;;;;;;;4.60;1.17;;;;;;;25.84;25.83;101440.34;5004046;28;20386;-79
2022/10/30 12:22:55;;;;;;;2.70;0.90;;;;;;;25.91;25.74;101423.84;5000855;28;20425;-80
2022/10/30 12:25:28;;;;;;;2.88;0.90;;;;;;;26.01;25.97;101425.88;5007623;28;20378;-80
2022/10/30 12:28:30;;;;;;;2.67;0.80;;;;;;;25.99;25.45;101426.13;5020164;28;20416;-80
2022/10/30 12:31:17;;;;;;;1.95;0.90;;;;;;;25.93;25.81;101428.00;5000893;28;20413;-81
2022/10/30 12:34:00;;;;;;;5.03;1.30;;;;;;;25.84;26.90;101432.22;5001642;28;20445;-79
2022/10/30 12:36:32;;;;;;;4.60;1.30;;;;;;;25.89;26.83;101426.00;5018612;28;20400;-79
2022/10/30 12:39:19;;;;;;;3.47;1.40;;;;;;;25.78;27.62;101418.81;5000912;28;20400;-80
2022/10/30 12:42:01;;;;;;;4.05;1.65;;;;;;;25.82;27.74;101418.06;5016770;28;20802;-78
2022/10/30 12:44:35;;;;;;;7.55;1.65;;;;;;;25.78;26.07;101411.47;5001748;28;20739;-80
2022/10/30 12:47:08;;;;;;;3.85;1.40;;;;;;;25.90;25.58;101411.34;5003075;28;20506;-77
2022/10/30 12:49:50;;;;;;;4.72;1.90;;;;;;;25.93;26.80;101408.16;5019676;28;20488;-79
2022/10/30 12:52:20;;;;;;;4.53;1.50;;;;;;;26.07;26.70;101408.53;5019399;28;20397;-79
2022/10/30 12:55:04;;;;;;;3.05;1.40;;;;;;;26.01;27.02;101404.16;5003666;28;20382;-78
2022/10/30 12:57:40;;;;;;;3.65;1.40;;;;;;;26.07;27.04;101409.38;5002371;28;20477;-79
2022/10/30 13:00:13;;;;;;;2.50;0.98;;;;;;;26.01;26.56;101409.59;5016553;28;20483;-78
2022/10/30 13:03:00;;;;;;;7.43;1.30;;;;;;;26.13;26.66;101404.81;5017324;28;20409;-78
2022/10/30 13:05:41;;;;;;;3.45;0.90;;;;;;;26.13;26.82;101399.38;5003798;28;20377;-80
2022/10/30 13:08:32;;;;;;;3.55;1.10;;;;;;;26.14;26.52;101395.56;5003798;28;20406;-79
2022/10/30 13:11:39;;;;;;;3.90;1.20;;;;;;;26.13;25.70;101404.81;5006167;28;20378;-78
2022/10/30 13:14:14;;;;;;;5.22;1.30;;;;;;;26.22;25.36;101400.56;5005580;28;20893;-80
2022/10/30 13:16:39;;;;;;;3.90;1.30;;;;;;;26.25;25.51;101393.78;5003171;28;20393;-80
2022/10/30 13:19:11;;;;;;;5.95;1.20;;;;;;;26.24;25.65;101398.38;5021739;28;20414;-77
2022/10/30 13:22:05;;;;;;;4.53;1.37;;;;;;;26.43;25.43;101390.66;5005754;28;20448;-79
2022/10/30 13:24:33;;;;;;;5.10;1.25;;;;;;;26.38;25.06;101400.66;5008286;28;20381;-79
2022/10/30 13:27:24;;;;;;;3.30;1.17;;;;;;;26.22;24.94;101397.03;5009031;28;20420;-78
2022/10/30 13:29:54;;;;;;;4.78;1.20;;;;;;;26.25;24.93;101388.34;5005142;28;20386;-80
2022/10/30 13:32:22;;;;;;;6.35;1.23;;;;;;;26.13;24.81;101397.47;5005053;28;20490;-80
2022/10/30 13:34:57;;;;;;;3.42;1.10;;;;;;;26.20;24.74;101397.28;5004730;28;20394;-79
2022/10/30 13:37:44;;;;;;;4.43;1.00;;;;;;;26.26;25.16;101392.69;5004244;28;20381;-78
2022/10/30 13:40:33;;;;;;;7.40;1.30;;;;;;;26.30;25.21;101405.50;5003463;28;20389;-79
2022/10/30 13:43:15;;;;;;;3.90;1.00;;;;;;;26.00;24.86;101405.22;5020260;28;20522;-79
2022/10/30 13:46:07;;;;;;;3.22;1.30;;;;;;;26.05;25.00;101403.38;4989932;28;20450;-78
2022/10/30 13:49:01;;;;;;;3.78;1.60;;;;;;;26.04;25.04;101406.38;5000402;28;20957;-79
2022/10/30 13:51:44;;;;;;;7.72;1.40;;;;;;;26.11;25.05;101391.50;5003773;28;20401;-79
2022/10/30 13:54:30;;;;;;;3.15;1.30;;;;;;;26.24;24.99;101403.00;5014159;28;20398;-79
2022/10/30 13:57:04;;;;;;;4.90;1.25;;;;;;;26.07;25.12;101403.13;5017932;28;20376;-80
2022/10/30 14:00:08;;;;;;;4.82;1.10;;;;;;;25.99;25.10;101398.97;5018733;28;20385;-79
2022/10/30 14:03:15;;;;;;;2.47;1.20;;;;;;;26.12;25.14;101395.03;5004364;28;20440;-80
2022/10/30 14:05:52;;;;;;;4.63;1.15;;;;;;;25.96;24.77;101393.22;5007811;28;20385;-79
2022/10/30 14:08:37;;;;;;;6.43;1.15;;;;;;;26.05;24.67;101387.06;5006309;28;20405;-79
2022/10/30 14:11:05;;;;;;;6.82;1.20;;;;;;;26.05;24.79;101395.22;5005442;28;20386;-80
2022/10/30 14:13:53;;;;;;;5.35;1.15;;;;;;;25.97;24.34;101386.75;5005147;28;20397;-80
2022/10/30 14:16:39;;;;;;;3.65;1.02;;;;;;;25.90;24.25;101390.44;5006876;28;20386;-79
2022/10/30 14:19:07;;;;;;;9.17;1.60;;;;;;;25.94;24.60;101391.59;4999269;28;20389;-77
2022/10/30 14:21:56;;;;;;;4.45;1.55;;;;;;;25.86;24.53;101389.31;5015488;28;20445;-79
2022/10/30 14:24:29;;;;;;;7.05;1.40;;;;;;;25.74;24.52;101388.63;5011898;28;20442;-81
2022/10/30 14:27:20;;;;;;;4.43;1.30;;;;;;;25.66;24.51;101386.38;5035098;28;20474;-79
2022/10/30 14:29:50;;;;;;;4.55;1.35;;;;;;;25.62;24.43;101387.94;5004664;28;20378;-79
2022/10/30 14:32:18;;;;;;;3.78;1.30;;;;;;;25.55;24.53;101388.13;4989719;28;20461;-79
2022/10/30 14:34:55;;;;;;;4.93;1.53;;;;;;;25.53;24.66;101393.00;5006459;28;20418;-77
2022/10/30 14:37:38;;;;;;;6.60;1.70;;;;;;;25.54;24.73;101395.47;4988427;28;20382;-79
2022/10/30 14:40:34;;;;;;;6.15;1.65;;;;;;;25.45;24.93;101391.56;5003823;28;20979;-79
2022/10/30 14:43:22;;;;;;;3.97;2.22;;;;;;;25.41;24.79;101389.59;5003328;28;20409;-79
2022/10/30 14:45:55;;;;;;;3.80;1.77;;;;;;;25.25;24.72;101383.19;5000768;28;20459;-80
2022/10/30 14:48:37;;;;;;;3.90;1.58;;;;;;;25.28;25.00;101388.09;4985910;28;20508;-78
2022/10/30 14:51:13;;;;;;;4.67;1.60;;;;;;;25.29;24.98;101387.03;5001107;28;20424;-80
2022/10/30 14:54:16;;;;;;;4.20;1.58;;;;;;;25.13;25.14;101385.97;5000139;28;20382;-78
2022/10/30 14:56:47;;;;;;;2.75;1.48;;;;;;;25.00;25.48;101389.88;4987110;28;20386;-80
2022/10/30 14:59:13;;;;;;;3.17;1.58;;;;;;;24.86;25.39;101386.69;4987658;28;20389;-81
2022/10/30 15:01:48;;;;;;;5.37;3.00;;;;;;;24.67;25.58;101382.59;4999981;28;20404;-80
2022/10/30 15:04:16;;;;;;;6.70;3.67;;;;;;;24.71;25.49;101383.78;5014008;28;20386;-80
2022/10/30 15:06:58;;;;;;;2.75;1.42;;;;;;;24.54;25.46;101381.91;5011240;28;20457;-79
2022/10/30 15:09:40;;;;;;;3.90;2.40;;;;;;;24.55;25.37;101385.41;5015861;28;20448;-79
2022/10/30 15:12:44;;;;;;;3.00;1.90;;;;;;;24.46;25.50;101387.69;5011112;28;20390;-80
2022/10/30 15:15:13;;;;;;;4.45;1.63;;;;;;;24.21;25.17;101393.50;4963421;28;20432;-79
2022/10/30 15:17:41;;;;;;;2.97;1.00;;;;;;;24.02;24.97;101390.19;5004629;28;20393;-79
2022/10/30 15:20:15;;;;;;;3.88;1.65;;;;;;;24.19;25.05;101401.06;4989458;28;20390;-78
2022/10/30 15:22:41;;;;;;;4.47;2.28;;;;;;;24.24;25.01;101401.97;5008640;28;20429;-79
2022/10/30 15:25:19;;;;;;;4.13;2.63;;;;;;;24.13;24.79;101400.16;4991474;28;20446;-79
2022/10/30 15:27:50;;;;;;;4.70;2.78;;;;;;;24.10;24.72;101402.53;4973610;28;20420;-79
2022/10/30 15:30:20;;;;;;;3.00;2.15;;;;;;;24.04;24.62;101399.72;4981575;28;20409;-80
2022/10/30 15:32:46;;;;;;;4.88;2.05;;;;;;;24.04;24.55;101398.91;4989217;28;20389;-79
2022/10/30 15:35:17;;;;;;;6.15;2.63;;;;;;;23.88;24.61;101395.09;5005484;28;20412;-80
2022/10/30 15:38:05;;;;;;;3.28;1.80;;;;;;;23.80;24.80;101396.28;4991764;28;20390;-81
2022/10/30 15:40:32;;;;;;;3.60;1.17;;;;;;;23.76;24.76;101402.41;5010284;28;20417;-79
2022/10/30 15:42:59;;;;;;;2.55;1.20;;;;;;;23.59;24.81;101389.63;5008835;28;20497;-79
2022/10/30 15:45:39;;;;;;;2.00;1.30;;;;;;;23.60;24.81;101393.16;4995015;28;20458;-85
2022/10/30 15:48:05;;;;;;;3.33;1.80;;;;;;;23.45;24.86;101388.28;5011335;28;20390;-78
2022/10/30 15:50:32;;;;;;;11.43;6.53;;;;;;;23.42;24.76;101397.66;5027097;28;20428;-80
2022/10/30 15:52:59;;;;;;;6.00;3.53;;;;;;;23.41;24.74;101395.22;4991195;28;20439;-79
2022/10/30 15:55:28;;;;;;;2.10;1.45;;;;;;;23.39;24.47;101397.31;5010573;28;20413;-79
2022/10/30 15:57:57;;;;;;;3.85;1.55;;;;;;;23.33;24.70;101399.09;5025077;28;20405;-79
2022/10/30 16:00:53;;;;;;;3.78;1.40;;;;;;;23.41;24.42;101396.03;5009567;28;20389;-80
2022/10/30 16:03:19;;;;;;;4.05;1.80;;;;;;;23.37;24.13;101399.44;5008514;28;20881;-80
2022/10/30 16:05:45;;;;;;;3.17;2.30;;;;;;;23.34;24.15;101408.06;5027427;28;20427;-79
2022/10/30 16:08:22;;;;;;;3.50;2.90;;;;;;;23.29;24.04;101396.06;5010056;28;20494;-79
2022/10/30 16:10:52;;;;;;;15.70;9.00;;;;;;;23.39;24.19;101413.56;5005369;28;20389;-80
2022/10/30 16:13:30;;;;;;;12.32;5.80;;;;;;;23.35;24.10;101413.22;5008691;28;20385;-80
2022/10/30 16:15:56;;;;;;;23.92;10.23;;;;;;;23.40;23.85;101412.50;5000381;28;20441;-78
2022/10/30 16:18:26;;;;;;;49.13;21.42;;;;;;;23.39;23.97;101413.56;5001592;28;20389;-79
2022/10/30 16:20:56;;;;;;;7.40;3.55;;;;;;;23.33;23.87;101414.53;5008656;28;20461;-78
2022/10/30 16:23:23;;;;;;;14.90;7.93;;;;;;;23.35;23.98;101423.22;5006694;28;20423;-80
2022/10/30 16:25:55;;;;;;;9.35;5.03;;;;;;;23.26;24.16;101418.19;5008018;28;20394;-80
2022/10/30 16:28:39;;;;;;;27.08;12.95;;;;;;;23.20;24.24;101421.00;5010212;28;20394;-79
2022/10/30 16:31:07;;;;;;;15.25;7.53;;;;;;;23.17;24.33;101418.78;5009326;28;20373;-78
2022/10/30 16:33:35;;;;;;;23.70;15.18;;;;;;;23.16;24.43;101420.66;5010172;28;20386;-78
2022/10/30 16:36:06;;;;;;;76.97;33.13;;;;;;;23.20;24.55;101427.25;5012973;28;20496;-79
2022/10/30 16:38:38;;;;;;;25.85;11.77;;;;;;;23.20;24.42;101424.53;5008442;28;20425;-79
2022/10/30 16:41:12;;;;;;;11.38;5.65;;;;;;;23.09;24.31;101437.00;5008887;28;20382;-79
2022/10/30 16:43:56;;;;;;;9.35;5.47;;;;;;;23.01;24.79;101433.81;5006693;28;20393;-80
2022/10/30 16:46:22;;;;;;;9.40;4.25;;;;;;;22.91;25.02;101440.63;5013452;28;20481;-79
2022/10/30 16:48:55;;;;;;;23.43;11.37;;;;;;;22.94;25.13;101436.66;5015048;28;20377;-80
2022/10/30 16:51:21;;;;;;;11.15;5.72;;;;;;;22.86;25.48;101435.09;5013543;28;20386;-79
2022/10/30 16:53:50;;;;;;;23.10;10.52;;;;;;;22.89;25.88;101442.75;4994632;28;20394;-79
2022/10/30 16:56:27;;;;;;;38.28;16.05;;;;;;;22.96;26.01;101444.50;5010462;28;20397;-80
2022/10/30 16:58:57;;;;;;;14.10;7.32;;;;;;;22.99;26.91;101449.44;5008294;28;20390;-79
2022/10/30 17:01:26;;;;;;;7.47;3.30;;;;;;;23.00;26.52;101454.63;4994908;28;20492;-78
2022/10/30 17:03:53;;;;;;;53.75;22.92;;;;;;;22.89;26.55;101456.25;4996113;28;20377;-79
2022/10/30 17:06:33;;;;;;;61.38;28.48;;;;;;;22.81;26.46;101453.88;5010220;28;20397;-80
2022/10/30 17:09:08;;;;;;;34.63;15.03;;;;;;;22.67;26.67;101456.00;5009960;28;20406;-80
2022/10/30 17:11:43;;;;;;;75.68;27.05;;;;;;;22.47;26.70;101452.78;4997938;28;20421;-78
2022/10/30 17:14:22;;;;;;;8.10;3.00;;;;;;;22.26;26.89;101457.66;5014510;28;20398;-79
2022/10/30 17:16:56;;;;;;;4.47;1.77;;;;;;;22.11;27.11;101458.06;5011092;28;20424;-80
2022/10/30 17:19:30;;;;;;;4.72;2.30;;;;;;;22.03;27.46;101462.94;5010338;28;20453;-80
2022/10/30 17:22:03;;;;;;;5.87;3.20;;;;;;;22.00;27.44;101466.09;5013614;28;20421;-79
2022/10/30 17:24:34;;;;;;;5.97;2.83;;;;;;;21.91;27.70;101471.81;5011358;28;20381;-80
2022/10/30 17:27:02;;;;;;;6.00;2.78;;;;;;;21.87;27.81;101461.69;5009662;28;20378;-79
2022/10/30 17:29:58;;;;;;;4.55;2.47;;;;;;;21.85;27.74;101469.19;5017740;28;20409;-81
2022/10/30 17:32:41;;;;;;;4.27;2.63;;;;;;;21.85;27.85;101471.91;4986256;28;20389;-79
2022/10/30 17:35:16;;;;;;;6.85;3.45;;;;;;;21.82;27.82;101470.47;5008578;28;20878;-78
2022/10/30 17:37:42;;;;;;;13.07;7.53;;;;;;;21.89;27.79;101481.19;5010595;28;20386;-80
2022/10/30 17:40:08;;;;;;;6.37;4.23;;;;;;;21.97;27.88;101488.97;5004152;28;20386;-78
2022/10/30 17:42:34;;;;;;;7.03;3.92;;;;;;;22.06;28.39;101484.91;5021291;28;20409;-80
2022/10/30 17:44:59;;;;;;;5.20;2.60;;;;;;;22.17;27.88;101488.72;5024595;28;20411;-79
2022/10/30 17:47:27;;;;;;;4.73;2.63;;;;;;;22.23;27.88;101493.19;5010595;28;20389;-79
2022/10/30 17:49:53;;;;;;;5.82;2.40;;;;;;;22.18;27.73;101493.03;5010478;28;20397;-80
2022/10/30 17:52:21;;;;;;;5.13;2.90;;;;;;;22.17;27.96;101506.81;5010142;28;20382;-78
2022/10/30 17:54:47;;;;;;;6.35;3.70;;;;;;;22.14;28.11;101500.78;5008063;28;20426;-79
2022/10/30 17:57:14;;;;;;;7.40;3.47;;;;;;;22.00;28.15;101501.19;5004730;28;20401;-80
2022/10/30 17:59:40;;;;;;;14.63;6.07;;;;;;;21.92;28.25;101502.31;5005404;28;20394;-82
2022/10/30 18:02:14;;;;;;;160.40;88.50;;;;;;;21.64;28.83;101503.66;5006552;28;20453;-80
2022/10/30 18:04:43;;;;;;;21.27;12.40;;;;;;;21.60;28.99;101498.97;5008199;28;20429;-80
2022/10/30 18:07:28;;;;;;;43.47;20.27;;;;;;;21.49;29.22;101505.94;5006494;28;20409;-79
2022/10/30 18:09:54;;;;;;;60.83;28.45;;;;;;;21.27;29.46;101497.41;5004829;28;20490;-79
2022/10/30 18:12:19;;;;;;;19.53;11.30;;;;;;;21.24;29.57;101506.75;5005560;28;20425;-79
2022/10/30 18:14:45;;;;;;;35.77;20.77;;;;;;;21.18;29.49;101503.06;5004886;28;20408;-78
2022/10/30 18:17:11;;;;;;;12.35;7.25;;;;;;;21.04;29.68;101508.81;5006550;28;20416;-80
2022/10/30 18:19:36;;;;;;;9.75;6.63;;;;;;;20.80;30.09;101517.47;5006574;28;20411;-79
2022/10/30 18:22:02;;;;;;;8.47;4.17;;;;;;;20.70;30.34;101519.00;5004771;28;20434;-79
2022/10/30 18:24:27;;;;;;;6.53;4.20;;;;;;;20.69;30.48;101526.28;5002465;28;20408;-80
2022/10/30 18:26:53;;;;;;;13.60;7.77;;;;;;;20.68;30.49;101521.09;4944531;28;20405;-80
2022/10/30 18:29:19;;;;;;;13.15;7.55;;;;;;;20.75;30.50;101520.00;4979590;28;20840;-80
2022/10/30 18:31:44;;;;;;;14.83;8.20;;;;;;;20.63;30.50;101497.50;4910313;28;56959;-80
2022/10/30 18:34:16;;;;;;;17.92;11.82;;;;;;;20.60;30.70;101516.78;4996893;28;20408;-79
2022/10/30 18:36:42;;;;;;;16.92;10.68;;;;;;;20.46;30.93;101517.88;4990113;28;20383;-79
2022/10/30 18:39:09;;;;;;;12.00;6.40;;;;;;;20.36;31.21;101534.50;4989491;28;20410;-78
2022/10/30 18:41:39;;;;;;;9.00;5.22;;;;;;;20.29;31.44;101529.13;4989502;28;20419;-81
2022/10/30 18:44:04;;;;;;;9.60;6.68;;;;;;;20.32;31.30;101531.41;4986021;28;20395;-80
2022/10/30 18:46:33;;;;;;;14.37;10.43;;;;;;;20.33;31.40;101533.06;4985627;28;20406;-80
2022/10/30 18:48:59;;;;;;;13.13;7.80;;;;;;;20.29;31.63;101533.69;4992221;28;20484;-79
2022/10/30 18:51:26;;;;;;;15.53;11.13;;;;;;;20.24;31.83;101523.59;5005823;28;20393;-80
2022/10/30 18:53:53;;;;;;;15.75;9.88;;;;;;;20.23;31.95;101528.13;4995550;28;21091;-79
2022/10/30 18:56:23;;;;;;;11.67;7.20;;;;;;;20.19;31.97;101518.84;4986513;28;20388;-80
2022/10/30 18:58:50;;;;;;;11.47;7.37;;;;;;;20.15;32.39;101516.78;4995222;28;20385;-80
2022/10/30 19:01:16;;;;;;;10.23;6.25;;;;;;;20.10;32.45;101520.13;5004813;28;20407;-80
2022/10/30 19:03:42;;;;;;;9.20;6.10;;;;;;;20.00;32.73;101517.88;4981242;28;20389;-80
2022/10/30 19:06:19;;;;;;;9.45;6.82;;;;;;;19.99;32.78;101523.50;4996242;28;20394;-79
2022/10/30 19:08:45;;;;;;;10.07;5.03;;;;;;;20.02;32.95;101523.03;4997616;28;20428;-81
2022/10/30 19:11:14;;;;;;;11.25;7.15;;;;;;;19.99;33.04;101527.00;4999134;28;20410;-81
2022/10/30 19:13:42;;;;;;;10.98;6.97;;;;;;;19.98;33.27;101536.09;4987809;28;20397;-80
2022/10/30 19:16:14;;;;;;;10.85;7.70;;;;;;;19.95;33.32;101533.00;4991910;28;20380;-81
2022/10/30 19:18:40;;;;;;;18.42;13.05;;;;;;;19.98;33.42;101522.66;4982023;28;20428;-80
2022/10/30 19:21:06;;;;;;;23.58;20.63;;;;;;;19.99;33.48;101523.50;4992794;28;20473;-80
2022/10/30 19:23:31;;;;;;;13.85;10.02;;;;;;;20.02;33.57;101539.19;4989104;28;20384;-80
2022/10/30 19:25:57;;;;;;;10.43;6.37;;;;;;;19.97;33.75;101529.09;4990624;28;20799;-80
2022/10/30 19:28:24;;;;;;;11.35;6.35;;;;;;;19.97;33.85;101533.63;5024564;28;20392;-79
2022/10/30 19:30:51;;;;;;;10.52;6.18;;;;;;;19.94;34.04;101532.19;4992939;28;20396;-79
2022/10/30 19:33:19;;;;;;;10.57;5.85;;;;;;;20.01;34.14;101532.19;4989364;28;20379;-80
2022/10/30 19:35:45;;;;;;;14.73;7.03;;;;;;;20.10;34.43;101538.97;5013344;28;20407;-80
2022/10/30 19:38:12;;;;;;;13.70;7.88;;;;;;;20.07;34.45;101530.50;4996619;28;20392;-82
2022/10/30 19:40:39;;;;;;;12.85;7.32;;;;;;;20.23;36.95;101541.59;4992559;28;20387;-79
2022/10/30 19:43:05;;;;;;;16.92;7.43;;;;;;;20.29;37.19;101542.59;4989402;28;20399;-82
2022/10/30 19:45:35;;;;;;;15.05;7.22;;;;;;;20.42;38.70;101539.03;5002167;28;20403;-79
2022/10/30 19:48:05;;;;;;;17.55;7.30;;;;;;;20.52;38.65;101538.56;4972923;28;20387;-81
2022/10/30 19:50:38;;;;;;;12.95;7.28;;;;;;;20.45;36.64;101541.28;4980570;28;20427;-79
2022/10/30 19:53:06;;;;;;;13.75;7.07;;;;;;;20.29;35.74;101549.84;5002626;28;20447;-80
2022/10/30 19:55:34;;;;;;;12.85;6.70;;;;;;;20.18;35.30;101548.66;4993422;28;20419;-79
2022/10/30 19:58:00;;;;;;;13.90;6.38;;;;;;;20.09;35.06;101545.38;4992834;28;20415;-79
2022/10/30 20:00:31;;;;;;;11.20;6.45;;;;;;;20.04;35.20;101555.94;4998577;28;20395;-79
2022/10/30 20:02:58;;;;;;;12.20;5.40;;;;;;;19.90;35.13;101555.19;4986230;28;20409;-81
2022/10/30 20:05:27;;;;;;;13.27;5.50;;;;;;;19.83;35.01;101560.56;4986881;28;20392;-79
2022/10/30 20:08:13;;;;;;;10.93;5.43;;;;;;;19.78;35.20;101559.56;4990668;28;20410;-80
2022/10/30 20:10:41;;;;;;;14.43;6.30;;;;;;;19.72;35.29;101561.19;4989833;28;20387;-81
2022/10/30 20:13:09;;;;;;;14.48;6.50;;;;;;;19.67;35.23;101563.69;4990042;28;20395;-80
2022/10/30 20:15:34;;;;;;;17.43;7.07;;;;;;;19.59;35.40;101559.38;4989636;28;20394;-79